Rudolph, Texas
Current Conditions -  °F | °C
As of 4:35 AM on Monday 20 Oct 2014 (Local Time) from KBKS Reporting Station
Clear Clear  
Wind Chill: 71°   Ceiling: Unl
Heat Index: 71°   Visibility: 7mi
Dew Point: 68°   Wind: 5mph
Humidity: 90%   Direction: 40°NE
Pressure: 29.92"   Gusts: NA
Location:  26.8954°N, 97.7184°W
Report Text: KBKS 200935Z AUTO 04004KT 7SM CLR 22/20 A2992 RMK AO1 T02170200
Loading
Personal Weather Stations






























Interactive Weather Map
Tropical Storm Tracking
New forecast layout! Learn more

10-Day Weather Forecast

Advertisements
Track Severe Weather on mobile